createdAt,value
2019-03-11T00:00:25.106Z,99593.87
2019-03-11T00:02:53.513Z,99602.89
2019-03-11T00:05:21.893Z,99589.20
2019-03-11T00:07:50.232Z,99589.07
2019-03-11T00:10:18.602Z,99589.55
2019-03-11T00:12:46.941Z,99590.69
2019-03-11T00:15:15.316Z,99593.05
2019-03-11T00:17:43.662Z,99572.81
2019-03-11T00:20:12.102Z,99569.48
2019-03-11T00:22:40.876Z,99577.48
2019-03-11T00:25:09.873Z,99579.27
2019-03-11T00:27:38.218Z,99580.34
2019-03-11T00:30:09.626Z,99567.54
2019-03-11T00:32:38.321Z,99558.20
2019-03-11T00:35:07.163Z,99561.17
2019-03-11T00:37:35.580Z,99558.20
2019-03-11T00:40:05.951Z,99551.17
2019-03-11T00:42:34.286Z,99544.37
2019-03-11T00:45:02.802Z,99540.67
2019-03-11T00:47:31.139Z,99534.69
2019-03-11T00:49:59.512Z,99541.19
2019-03-11T00:52:27.941Z,99530.69
2019-03-11T00:54:56.311Z,99524.55
2019-03-11T00:57:24.640Z,99533.66
2019-03-11T00:59:53.013Z,99534.59
2019-03-11T01:02:21.361Z,99516.47
2019-03-11T01:04:49.793Z,99521.05
2019-03-11T01:07:18.127Z,99518.09
2019-03-11T01:09:46.569Z,99507.58
2019-03-11T01:12:14.983Z,99523.61
2019-03-11T01:14:43.352Z,99497.84
2019-03-11T01:17:11.696Z,99504.35
2019-03-11T01:19:40.032Z,99501.80
2019-03-11T01:22:08.390Z,99494.30
2019-03-11T01:24:36.727Z,99487.00
2019-03-11T01:27:05.165Z,99508.42
2019-03-11T01:29:33.507Z,99509.56
2019-03-11T01:32:01.957Z,99489.31
2019-03-11T01:34:30.297Z,99504.59
2019-03-11T01:36:58.673Z,99489.20
2019-03-11T01:39:27.087Z,99503.34
2019-03-11T01:41:55.464Z,99482.13
2019-03-11T01:44:23.804Z,99488.52
2019-03-11T01:46:52.173Z,99483.94
2019-03-11T01:49:20.513Z,99494.55
2019-03-11T01:51:48.958Z,99496.53
2019-03-11T01:54:17.301Z,99502.56
2019-03-11T01:56:45.672Z,99492.69
2019-03-11T01:59:14.013Z,99479.91
2019-03-11T02:01:42.462Z,99473.77
2019-03-11T02:04:10.950Z,99473.36
2019-03-11T02:06:39.389Z,99463.43
2019-03-11T02:09:09.408Z,99481.73
2019-03-11T02:11:39.315Z,99460.51
2019-03-11T02:14:08.437Z,99459.15
2019-03-11T02:16:37.384Z,99452.53
2019-03-11T02:19:05.734Z,99455.00
2019-03-11T02:21:34.188Z,99453.49
2019-03-11T02:24:02.524Z,99455.58
2019-03-11T02:26:30.900Z,99454.39
2019-03-11T02:28:59.247Z,99435.38
2019-03-11T02:31:27.913Z,99445.64
2019-03-11T02:33:56.224Z,99436.37
2019-03-11T02:36:24.604Z,99424.19
2019-03-11T02:38:52.958Z,99443.48
2019-03-11T02:41:21.397Z,99444.09
2019-03-11T02:43:49.740Z,99456.09
2019-03-11T02:46:18.108Z,99445.75
2019-03-11T02:48:46.450Z,99457.12
2019-03-11T02:51:14.822Z,99439.70
2019-03-11T02:53:43.162Z,99451.92
2019-03-11T02:56:11.608Z,99442.34
2019-03-11T02:58:40.018Z,99440.26
2019-03-11T03:01:19.088Z,99424.34
2019-03-11T03:04:01.272Z,99419.45
2019-03-11T03:06:29.723Z,99418.52
2019-03-11T03:08:58.068Z,99412.80
2019-03-11T03:11:26.506Z,99421.18
2019-03-11T03:13:54.842Z,99416.27
2019-03-11T03:16:23.184Z,99404.11
2019-03-11T03:18:51.557Z,99391.66
2019-03-11T03:21:19.909Z,99390.19
2019-03-11T03:23:48.274Z,99412.63
2019-03-11T03:26:16.622Z,99388.54
2019-03-11T03:28:44.996Z,99433.58
2019-03-11T03:31:13.333Z,99437.71
2019-03-11T03:33:41.696Z,99466.77
2019-03-11T03:36:10.108Z,99424.66
2019-03-11T03:38:38.485Z,99431.22
2019-03-11T03:41:06.817Z,99449.70
2019-03-11T03:43:35.271Z,99444.93
2019-03-11T03:46:17.397Z,99446.42
2019-03-11T03:48:33.805Z,99443.00
2019-03-11T03:51:02.185Z,99465.01
2019-03-11T03:53:30.560Z,99471.35
2019-03-11T03:55:58.902Z,99466.61
2019-03-11T03:58:27.271Z,99488.61
2019-03-11T04:00:55.611Z,99472.19
2019-03-11T04:03:23.982Z,99467.03
2019-03-11T04:05:52.709Z,99458.50
2019-03-11T04:08:21.152Z,99449.50
2019-03-11T04:10:49.487Z,99464.02
2019-03-11T04:13:17.918Z,99440.92
2019-03-11T04:15:46.424Z,99443.57
2019-03-11T04:18:14.864Z,99452.24
2019-03-11T04:20:43.266Z,99446.85
2019-03-11T04:23:11.703Z,99429.37
2019-03-11T04:25:40.131Z,99430.67
2019-03-11T04:28:08.569Z,99427.70
2019-03-11T04:30:36.977Z,99412.61
2019-03-11T04:33:05.414Z,99409.08
2019-03-11T04:35:33.753Z,99421.92
2019-03-11T04:38:02.104Z,99424.42
2019-03-11T04:40:30.827Z,99439.87
2019-03-11T04:42:59.166Z,99428.64
2019-03-11T04:45:27.609Z,99436.16
2019-03-11T04:47:55.948Z,99437.21
2019-03-11T04:50:24.313Z,99429.14
2019-03-11T04:52:52.654Z,99442.23
2019-03-11T04:55:21.048Z,99446.77
2019-03-11T04:57:52.558Z,99468.17
2019-03-11T05:00:23.270Z,99490.06
2019-03-11T05:02:51.627Z,99482.97
2019-03-11T05:05:20.082Z,99473.52
2019-03-11T05:07:48.500Z,99476.60
2019-03-11T05:10:17.021Z,99466.36
2019-03-11T05:12:45.732Z,99461.25
2019-03-11T05:15:16.028Z,99462.72
2019-03-11T05:17:45.315Z,99462.14
2019-03-11T05:20:15.796Z,99464.23
2019-03-11T05:22:44.192Z,99467.12
2019-03-11T05:25:14.075Z,99473.02
2019-03-11T05:27:42.496Z,99467.61
2019-03-11T05:30:20.473Z,99455.13
2019-03-11T05:32:48.916Z,99481.78
2019-03-11T05:35:17.506Z,99464.22
2019-03-11T05:37:45.914Z,99478.04
2019-03-11T05:40:21.068Z,99472.44
2019-03-11T05:42:49.413Z,99488.43
2019-03-11T05:45:18.631Z,99481.84
2019-03-11T05:47:47.029Z,99473.09
2019-03-11T05:50:16.341Z,99484.40
2019-03-11T05:52:44.825Z,99509.04
2019-03-11T05:55:13.930Z,99509.36
2019-03-11T05:57:42.411Z,99507.05
2019-03-11T06:00:24.275Z,99505.13
2019-03-11T06:02:52.607Z,99493.14
2019-03-11T06:05:21.159Z,99524.01
2019-03-11T06:07:49.607Z,99505.89
2019-03-11T06:10:18.041Z,99506.95
2019-03-11T06:12:46.378Z,99517.72
2019-03-11T06:15:15.492Z,99526.87
2019-03-11T06:17:44.029Z,99517.58
2019-03-11T06:20:18.797Z,99541.41
2019-03-11T06:22:47.138Z,99534.08
2019-03-11T06:25:15.487Z,99537.70
2019-03-11T06:27:43.867Z,99548.47
2019-03-11T06:30:12.691Z,99549.77
2019-03-11T06:32:41.058Z,99553.79
2019-03-11T06:35:09.470Z,99557.89
2019-03-11T06:37:37.837Z,99549.16
2019-03-11T06:40:10.228Z,99566.80
2019-03-11T06:42:39.876Z,99547.73
2019-03-11T06:45:13.246Z,99551.21
2019-03-11T06:47:41.608Z,99563.44
2019-03-11T06:50:11.486Z,99543.64
2019-03-11T06:52:39.925Z,99556.88
2019-03-11T06:55:10.578Z,99560.53
2019-03-11T06:57:39.025Z,99559.69
2019-03-11T07:00:20.371Z,99548.48
2019-03-11T07:02:48.741Z,99548.63
2019-03-11T07:05:20.364Z,99550.53
2019-03-11T07:07:47.309Z,99555.61
2019-03-11T07:10:16.608Z,99560.05
2019-03-11T07:12:45.111Z,99544.64
2019-03-11T07:15:15.538Z,99550.42
2019-03-11T07:17:44.146Z,99563.90
2019-03-11T07:20:15.660Z,99578.17
2019-03-11T07:22:44.120Z,99562.55
2019-03-11T07:25:12.447Z,99556.14
2019-03-11T07:27:40.807Z,99574.19
2019-03-11T07:30:19.294Z,99571.36
2019-03-11T07:32:47.766Z,99578.33
2019-03-11T07:35:16.104Z,99575.81
2019-03-11T07:37:44.541Z,99579.23
2019-03-11T07:40:29.286Z,99585.64
2019-03-11T07:42:49.120Z,99586.30
2019-03-11T07:45:17.792Z,99595.00
2019-03-11T07:47:46.236Z,99586.55
2019-03-11T07:50:16.010Z,99594.86
2019-03-11T07:52:44.450Z,99593.81
2019-03-11T07:55:13.531Z,99586.02
2019-03-11T07:57:41.966Z,99602.57
2019-03-11T08:00:20.572Z,99597.51
2019-03-11T08:02:48.939Z,99597.11
2019-03-11T08:05:17.289Z,99614.83
2019-03-11T08:07:45.726Z,99616.92
2019-03-11T08:10:18.726Z,99613.21
2019-03-11T08:12:47.105Z,99620.64
2019-03-11T08:15:16.379Z,99609.72
2019-03-11T08:17:44.814Z,99625.00
2019-03-11T08:20:15.264Z,99623.56
2019-03-11T08:22:43.767Z,99626.81
2019-03-11T08:25:13.147Z,99640.43
2019-03-11T08:27:41.597Z,99628.48
2019-03-11T08:30:15.730Z,99644.75
2019-03-11T08:32:44.174Z,99642.84
2019-03-11T08:35:12.654Z,99634.42
2019-03-11T08:37:41.029Z,99633.92
2019-03-11T08:40:15.169Z,99631.23
2019-03-11T08:42:43.532Z,99640.93
2019-03-11T08:45:13.909Z,99644.19
2019-03-11T08:47:42.358Z,99648.38
2019-03-11T08:50:16.505Z,99645.39
2019-03-11T08:52:44.936Z,99658.18
2019-03-11T08:55:14.011Z,99661.14
2019-03-11T08:57:42.444Z,99666.99
2019-03-11T09:00:20.163Z,99667.04
2019-03-11T09:02:48.616Z,99677.90
2019-03-11T09:05:17.214Z,99687.84
2019-03-11T09:07:45.617Z,99660.95
2019-03-11T09:10:15.331Z,99660.49
2019-03-11T09:12:43.813Z,99679.16
2019-03-11T09:15:14.021Z,99676.45
2019-03-11T09:17:42.606Z,99694.17
2019-03-11T09:20:12.973Z,99705.92
2019-03-11T09:22:41.338Z,99704.80
2019-03-11T09:25:21.544Z,99673.64
2019-03-11T09:27:50.971Z,99661.70
2019-03-11T09:30:23.172Z,99660.95
2019-03-11T09:32:51.580Z,99687.66
2019-03-11T09:35:19.954Z,99664.95
2019-03-11T09:37:48.367Z,99667.73
2019-03-11T09:40:19.648Z,99653.91
2019-03-11T09:42:47.992Z,99672.84
2019-03-11T09:45:18.662Z,99659.55
2019-03-11T09:47:47.336Z,99743.95
2019-03-11T09:50:16.244Z,99693.66
2019-03-11T09:52:44.578Z,99707.97
2019-03-11T09:55:29.305Z,99707.18
2019-03-11T09:57:57.716Z,99698.17
2019-03-11T10:00:31.267Z,99714.88
2019-03-11T10:02:59.683Z,99711.17
2019-03-11T10:05:28.112Z,99698.67
2019-03-11T10:07:56.639Z,99708.20
2019-03-11T10:10:26.711Z,99723.25
2019-03-11T10:12:55.114Z,99736.95
2019-03-11T10:15:23.854Z,99727.78
2019-03-11T10:17:52.192Z,99724.77
2019-03-11T10:20:20.995Z,99718.53
2019-03-11T10:22:49.504Z,99740.91
2019-03-11T10:25:18.820Z,99747.47
2019-03-11T10:27:47.294Z,99776.89
2019-03-11T10:30:22.494Z,99752.72
2019-03-11T10:32:50.900Z,99762.06
2019-03-11T10:35:31.275Z,99760.47
2019-03-11T10:37:50.444Z,99756.38
2019-03-11T10:40:26.337Z,99772.84
2019-03-11T10:42:55.548Z,99790.96
2019-03-11T10:45:31.134Z,99793.25
2019-03-11T10:47:54.137Z,99784.42
2019-03-11T10:50:22.664Z,99811.91
2019-03-11T10:52:51.065Z,99789.70
2019-03-11T10:55:22.608Z,99805.25
2019-03-11T10:57:50.946Z,99808.19
2019-03-11T11:00:27.705Z,99819.47
2019-03-11T11:02:56.183Z,99814.19
2019-03-11T11:05:24.617Z,99817.91
2019-03-11T11:07:53.149Z,99827.51
2019-03-11T11:10:21.589Z,99818.19
2019-03-11T11:12:50.097Z,99819.16
2019-03-11T11:15:26.459Z,99816.55
2019-03-11T11:17:54.870Z,99814.03
2019-03-11T11:20:24.082Z,99824.10
2019-03-11T11:22:53.651Z,99818.56
2019-03-11T11:25:23.662Z,99811.28
2019-03-11T11:27:52.138Z,99830.73
2019-03-11T11:30:26.147Z,99837.08
2019-03-11T11:32:54.728Z,99830.61
2019-03-11T11:35:23.164Z,99836.45
2019-03-11T11:37:52.267Z,99849.33
2019-03-11T11:40:22.672Z,99852.10
2019-03-11T11:42:51.352Z,99852.59
2019-03-11T11:45:23.803Z,99841.61
2019-03-11T11:47:52.310Z,99859.65
2019-03-11T11:50:21.899Z,99848.94
2019-03-11T11:52:50.500Z,99864.01
2019-03-11T11:55:20.283Z,99858.63
2019-03-11T11:57:48.729Z,99855.35
2019-03-11T12:00:26.466Z,99849.91
2019-03-11T12:02:54.897Z,99864.33
2019-03-11T12:05:23.381Z,99883.14
2019-03-11T12:07:51.987Z,99868.27
2019-03-11T12:10:25.673Z,99877.20
2019-03-11T12:12:54.112Z,99882.64
2019-03-11T12:15:22.590Z,99878.20
2019-03-11T12:17:51.031Z,99892.70
2019-03-11T12:20:26.803Z,99887.75
2019-03-11T12:22:55.315Z,99910.66
2019-03-11T12:25:23.718Z,99887.53
2019-03-11T12:27:54.233Z,99889.07
2019-03-11T12:30:27.236Z,99888.89
2019-03-11T12:32:58.227Z,99897.19
2019-03-11T12:35:26.699Z,99875.78
2019-03-11T12:37:55.213Z,99881.06
2019-03-11T12:40:23.692Z,99884.22
2019-03-11T12:42:52.070Z,99888.13
2019-03-11T12:45:21.645Z,99899.48
2019-03-11T12:47:50.282Z,99908.45
2019-03-11T12:50:24.662Z,99902.51
2019-03-11T12:52:53.205Z,99888.75
2019-03-11T12:55:22.026Z,99924.98
2019-03-11T12:57:50.526Z,99897.77
2019-03-11T13:00:20.203Z,99918.47
2019-03-11T13:02:48.909Z,99917.98
2019-03-11T13:05:17.787Z,99923.94
2019-03-11T13:07:46.394Z,99919.48
2019-03-11T13:10:20.515Z,99934.70
2019-03-11T13:12:49.332Z,99918.67
2019-03-11T13:15:18.035Z,99950.58
2019-03-11T13:17:46.732Z,99954.98
2019-03-11T13:20:26.725Z,99924.70
2019-03-11T13:22:55.099Z,99922.52
2019-03-11T13:25:23.516Z,99936.09
2019-03-11T13:27:52.158Z,99930.60
2019-03-11T13:30:20.780Z,99949.44
2019-03-11T13:32:49.353Z,99963.73
2019-03-11T13:35:17.770Z,99971.47
2019-03-11T13:37:46.414Z,99966.49
2019-03-11T13:40:18.086Z,99947.03
2019-03-11T13:42:46.455Z,99969.27
2019-03-11T13:45:18.547Z,99976.48
2019-03-11T13:47:47.108Z,99982.05
2019-03-11T13:50:18.016Z,99999.48
2019-03-11T13:52:46.523Z,100002.78
2019-03-11T13:55:16.207Z,100019.27
2019-03-11T13:57:44.721Z,99981.34
2019-03-11T14:00:16.570Z,100001.27
2019-03-11T14:02:44.913Z,99988.07
2019-03-11T14:05:13.433Z,99982.27
2019-03-11T14:07:41.771Z,99984.69
2019-03-11T14:10:13.925Z,100022.02
2019-03-11T14:12:42.344Z,100004.58
2019-03-11T14:15:13.881Z,100007.85
2019-03-11T14:17:42.298Z,100013.81
2019-03-11T14:20:13.077Z,100001.00
2019-03-11T14:22:41.417Z,100032.44
2019-03-11T14:25:11.946Z,100005.29
2019-03-11T14:27:40.404Z,100010.52
2019-03-11T14:30:13.854Z,100010.44
2019-03-11T14:32:42.271Z,100013.89
2019-03-11T14:35:11.982Z,100021.19
2019-03-11T14:37:40.468Z,100021.92
2019-03-11T14:40:12.050Z,100012.33
2019-03-11T14:42:40.477Z,100031.00
2019-03-11T14:45:14.439Z,100018.06
2019-03-11T14:47:42.779Z,100014.77
2019-03-11T14:50:13.298Z,100023.86
2019-03-11T14:52:41.743Z,100010.06
2019-03-11T14:55:11.642Z,100004.55
2019-03-11T14:57:39.978Z,100016.23
2019-03-11T15:00:14.239Z,100021.04
2019-03-11T15:02:42.663Z,100020.73
2019-03-11T15:05:11.218Z,100023.08
2019-03-11T15:07:39.701Z,100021.86
2019-03-11T15:10:10.514Z,100070.00
2019-03-11T15:12:38.987Z,100043.33
2019-03-11T15:15:10.370Z,100036.45
2019-03-11T15:17:38.711Z,100042.14
2019-03-11T15:20:08.430Z,100050.37
2019-03-11T15:22:36.776Z,100049.66
2019-03-11T15:25:07.998Z,100019.09
2019-03-11T15:27:37.470Z,100029.40
2019-03-11T15:30:09.249Z,100036.91
2019-03-11T15:32:37.589Z,100036.80
2019-03-11T15:35:07.809Z,100040.19
2019-03-11T15:37:36.319Z,100038.52
2019-03-11T15:40:07.438Z,100064.14
2019-03-11T15:42:35.790Z,100027.75
2019-03-11T15:45:04.901Z,100041.19
2019-03-11T15:47:33.305Z,100047.66
2019-03-11T15:50:01.791Z,100042.90
2019-03-11T15:52:30.210Z,100040.32
2019-03-11T15:54:58.502Z,100039.20
2019-03-11T15:57:26.876Z,100041.30
2019-03-11T15:59:55.217Z,100042.70
2019-03-11T16:02:23.668Z,100059.18
2019-03-11T16:04:52.091Z,100051.86
2019-03-11T16:07:20.544Z,100052.92
2019-03-11T16:09:50.425Z,100065.08
2019-03-11T16:12:18.803Z,100044.56
2019-03-11T16:14:49.633Z,100058.33
2019-03-11T16:17:17.323Z,100059.94
2019-03-11T16:19:45.816Z,100071.02
2019-03-11T16:22:22.835Z,100059.19
2019-03-11T16:24:46.407Z,100067.99
2019-03-11T16:27:14.870Z,100078.09
2019-03-11T16:29:43.213Z,100085.66
2019-03-11T16:32:12.174Z,100066.69
2019-03-11T16:34:40.725Z,100078.56
2019-03-11T16:37:09.100Z,100077.52
2019-03-11T16:39:37.444Z,100095.48
2019-03-11T16:42:05.886Z,100100.19
2019-03-11T16:44:34.228Z,100099.52
2019-03-11T16:47:02.684Z,100086.86
2019-03-11T16:49:31.027Z,100081.17
2019-03-11T16:52:01.464Z,100111.03
2019-03-11T16:54:30.574Z,100108.83
2019-03-11T16:56:59.367Z,100105.58
2019-03-11T16:59:28.579Z,100105.45
2019-03-11T17:02:01.825Z,100101.72
2019-03-11T17:04:30.553Z,100100.84
2019-03-11T17:06:58.948Z,100113.38
2019-03-11T17:09:27.421Z,100103.22
2019-03-11T17:11:55.790Z,100121.86
2019-03-11T17:14:25.167Z,100118.36
2019-03-11T17:16:53.609Z,100125.94
2019-03-11T17:19:21.960Z,100140.80
2019-03-11T17:21:50.339Z,100142.25
2019-03-11T17:24:18.751Z,100138.98
2019-03-11T17:26:47.123Z,100149.94
2019-03-11T17:29:15.535Z,100159.67
2019-03-11T17:31:44.043Z,100173.52
2019-03-11T17:34:12.381Z,100159.05
2019-03-11T17:36:42.554Z,100166.13
2019-03-11T17:39:10.894Z,100171.90
2019-03-11T17:41:39.461Z,100175.33
2019-03-11T17:44:08.653Z,100165.62
2019-03-11T17:46:37.059Z,100179.50
2019-03-11T17:49:05.432Z,100183.07
2019-03-11T17:51:34.801Z,100185.44
2019-03-11T17:54:03.316Z,100189.72
2019-03-11T17:56:31.661Z,100195.02
2019-03-11T17:59:00.106Z,100207.21
2019-03-11T18:01:28.661Z,100203.17
2019-03-11T18:03:57.038Z,100209.14
2019-03-11T18:06:25.449Z,100214.43
2019-03-11T18:08:53.825Z,100222.17
2019-03-11T18:11:22.171Z,100224.91
2019-03-11T18:13:50.562Z,100225.44
2019-03-11T18:16:18.903Z,100225.62
2019-03-11T18:18:47.279Z,100228.12
2019-03-11T18:21:16.756Z,100231.06
2019-03-11T18:23:48.239Z,100228.39
2019-03-11T18:26:16.602Z,100233.94
2019-03-11T18:28:46.492Z,100246.38
2019-03-11T18:31:14.984Z,100248.00
2019-03-11T18:33:43.430Z,100247.53
2019-03-11T18:36:11.844Z,100263.56
2019-03-11T18:38:40.293Z,100258.70
2019-03-11T18:41:08.815Z,100246.95
2019-03-11T18:43:42.616Z,100261.03
2019-03-11T18:46:07.338Z,100255.33
2019-03-11T18:48:35.731Z,100250.72
2019-03-11T18:51:10.969Z,100245.52
2019-03-11T18:53:34.231Z,100247.61
2019-03-11T18:56:02.676Z,100252.33
2019-03-11T18:58:31.170Z,100244.31
2019-03-11T19:00:59.650Z,100258.44
2019-03-11T19:03:28.128Z,100249.63
2019-03-11T19:05:56.539Z,100247.45
2019-03-11T19:08:24.884Z,100253.59
2019-03-11T19:10:55.155Z,100248.16
2019-03-11T19:13:27.087Z,100255.94
2019-03-11T19:15:55.574Z,100260.06
2019-03-11T19:18:23.900Z,100262.08
2019-03-11T19:20:52.363Z,100263.97
2019-03-11T19:23:20.819Z,100268.16
2019-03-11T19:25:49.252Z,100272.11
2019-03-11T19:28:18.703Z,100273.95
2019-03-11T19:30:47.310Z,100277.67
2019-03-11T19:33:15.724Z,100285.08
2019-03-11T19:35:44.123Z,100283.58
2019-03-11T19:38:14.274Z,100291.49
2019-03-11T19:40:42.827Z,100295.09
2019-03-11T19:43:13.155Z,100299.89
2019-03-11T19:45:41.606Z,100309.11
2019-03-11T19:48:09.949Z,100295.81
2019-03-11T19:50:38.298Z,100299.34
2019-03-11T19:53:06.706Z,100303.48
2019-03-11T19:55:35.544Z,100298.02
2019-03-11T19:58:04.116Z,100298.20
2019-03-11T20:00:32.546Z,100299.14
2019-03-11T20:03:01.144Z,100301.08
2019-03-11T20:05:31.716Z,100305.83
2019-03-11T20:08:00.236Z,100311.05
2019-03-11T20:10:28.721Z,100309.21
2019-03-11T20:12:57.105Z,100311.00
2019-03-11T20:15:26.203Z,100302.72
2019-03-11T20:17:54.653Z,100307.42
2019-03-11T20:20:23.163Z,100310.03
2019-03-11T20:22:52.433Z,100307.53
2019-03-11T20:25:30.203Z,100303.15
2019-03-11T20:27:58.724Z,100308.30
2019-03-11T20:30:27.200Z,100297.30
2019-03-11T20:32:56.810Z,100302.83
2019-03-11T20:35:30.585Z,100307.03
2019-03-11T20:37:59.974Z,100305.97
2019-03-11T20:40:28.336Z,100296.05
2019-03-11T20:42:56.700Z,100302.95
2019-03-11T20:45:25.619Z,100311.03
2019-03-11T20:47:59.680Z,100306.34
2019-03-11T20:50:37.586Z,100309.48
2019-03-11T20:52:58.413Z,100313.43
2019-03-11T20:55:26.766Z,100311.72
2019-03-11T20:57:55.202Z,100314.53
2019-03-11T21:00:24.965Z,100314.17
2019-03-11T21:02:53.411Z,100321.91
2019-03-11T21:05:41.543Z,100325.50
2019-03-11T21:08:12.241Z,100328.47
2019-03-11T21:10:44.801Z,100332.89
2019-03-11T21:13:15.632Z,100325.94
2019-03-11T21:15:47.274Z,100330.38
2019-03-11T21:18:17.050Z,100326.70
2019-03-11T21:20:45.707Z,100327.88
2019-03-11T21:23:14.409Z,100337.19
2019-03-11T21:25:42.830Z,100337.89
2019-03-11T21:28:11.283Z,100340.56
2019-03-11T21:30:40.542Z,100347.16
2019-03-11T21:33:12.474Z,100341.06
2019-03-11T21:35:40.912Z,100337.42
2019-03-11T21:38:09.400Z,100335.94
2019-03-11T21:40:37.845Z,100341.19
2019-03-11T21:43:06.349Z,100339.84
2019-03-11T21:45:35.407Z,100342.77
2019-03-11T21:48:03.910Z,100336.80
2019-03-11T21:50:32.286Z,100336.05
2019-03-11T21:53:00.773Z,100344.48
2019-03-11T21:55:29.138Z,100347.66
2019-03-11T21:57:57.596Z,100345.63
2019-03-11T22:00:34.506Z,100344.63
2019-03-11T22:02:56.098Z,100341.95
2019-03-11T22:05:29.067Z,100338.06
2019-03-11T22:07:57.426Z,100346.03
2019-03-11T22:10:25.840Z,100336.84
2019-03-11T22:12:54.487Z,100347.84
2019-03-11T22:15:26.595Z,100348.94
2019-03-11T22:17:54.975Z,100347.77
2019-03-11T22:20:23.386Z,100342.70
2019-03-11T22:22:51.833Z,100354.56
2019-03-11T22:25:21.320Z,100354.00
2019-03-11T22:27:49.694Z,100365.66
2019-03-11T22:30:20.149Z,100361.80
2019-03-11T22:32:48.725Z,100358.70
2019-03-11T22:35:17.155Z,100355.22
2019-03-11T22:37:45.498Z,100360.22
2019-03-11T22:40:15.021Z,100365.16
2019-03-11T22:42:43.436Z,100370.24
2019-03-11T22:45:16.803Z,100373.98
2019-03-11T22:47:44.585Z,100384.59
2019-03-11T22:50:13.046Z,100390.48
2019-03-11T22:52:41.386Z,100396.68
2019-03-11T22:55:11.596Z,100407.47
2019-03-11T22:57:40.008Z,100405.66
2019-03-11T23:00:14.303Z,100407.84
2019-03-11T23:02:42.716Z,100405.94
2019-03-11T23:05:11.238Z,100417.08
2019-03-11T23:07:39.587Z,100411.88
2019-03-11T23:10:09.647Z,100404.31
2019-03-11T23:12:38.060Z,100411.47
2019-03-11T23:15:08.466Z,100409.84
2019-03-11T23:17:37.162Z,100405.38
2019-03-11T23:20:09.064Z,100409.92
2019-03-11T23:22:37.561Z,100401.66
2019-03-11T23:25:07.363Z,100408.68
2019-03-11T23:27:35.704Z,100409.65
2019-03-11T23:30:10.173Z,100412.66
2019-03-11T23:32:38.508Z,100407.94
2019-03-11T23:35:07.723Z,100420.98
2019-03-11T23:37:36.061Z,100426.39
2019-03-11T23:40:05.983Z,100423.00
2019-03-11T23:42:34.335Z,100419.48
2019-03-11T23:45:02.776Z,100418.05
2019-03-11T23:47:31.121Z,100420.37
2019-03-11T23:49:59.493Z,100421.23
2019-03-11T23:52:27.838Z,100423.72
2019-03-11T23:54:56.211Z,100426.66
2019-03-11T23:57:24.559Z,100420.80
2019-03-11T23:59:52.936Z,100424.05
